sensor_id;sensor_type;location;lat;lon;timestamp;pressure;altitude;pressure_sealevel;temperature;humidity
75536;BME280;64119;52.070;20.804;2022-11-20T00:01:17;100344.53;;;-5.19;80.97
75536;BME280;64119;52.070;20.804;2022-11-20T00:03:45;100345.86;;;-5.20;80.79
75536;BME280;64119;52.070;20.804;2022-11-20T00:06:16;100348.77;;;-5.14;80.92
75536;BME280;64119;52.070;20.804;2022-11-20T00:08:45;100351.42;;;-5.10;80.53
75536;BME280;64119;52.070;20.804;2022-11-20T00:11:19;100352.63;;;-5.07;79.70
75536;BME280;64119;52.070;20.804;2022-11-20T00:13:49;100355.34;;;-5.06;79.58
75536;BME280;64119;52.070;20.804;2022-11-20T00:16:19;100355.20;;;-5.07;79.49
75536;BME280;64119;52.070;20.804;2022-11-20T00:18:48;100353.38;;;-5.05;79.35
75536;BME280;64119;52.070;20.804;2022-11-20T00:21:21;100352.63;;;-5.07;79.44
75536;BME280;64119;52.070;20.804;2022-11-20T00:23:50;100348.39;;;-5.05;79.45
75536;BME280;64119;52.070;20.804;2022-11-20T00:26:23;100348.86;;;-5.01;79.25
75536;BME280;64119;52.070;20.804;2022-11-20T00:28:56;100350.52;;;-5.01;79.44
75536;BME280;64119;52.070;20.804;2022-11-20T00:31:24;100345.08;;;-4.99;79.57
75536;BME280;64119;52.070;20.804;2022-11-20T00:33:53;100341.96;;;-4.96;79.58
75536;BME280;64119;52.070;20.804;2022-11-20T00:36:26;100340.80;;;-4.94;79.72
75536;BME280;64119;52.070;20.804;2022-11-20T00:38:56;100342.00;;;-4.91;79.62
75536;BME280;64119;52.070;20.804;2022-11-20T00:41:26;100337.85;;;-4.88;79.58
75536;BME280;64119;52.070;20.804;2022-11-20T00:43:55;100339.64;;;-4.86;79.40
75536;BME280;64119;52.070;20.804;2022-11-20T00:46:25;100333.82;;;-4.84;79.43
75536;BME280;64119;52.070;20.804;2022-11-20T00:48:55;100334.13;;;-4.81;79.61
75536;BME280;64119;52.070;20.804;2022-11-20T00:51:24;100331.75;;;-4.78;79.64
75536;BME280;64119;52.070;20.804;2022-11-20T00:53:55;100327.90;;;-4.72;80.13
75536;BME280;64119;52.070;20.804;2022-11-20T00:56:24;100325.05;;;-4.65;80.28
75536;BME280;64119;52.070;20.804;2022-11-20T00:58:51;100326.23;;;-4.58;80.53
75536;BME280;64119;52.070;20.804;2022-11-20T01:01:25;100317.45;;;-4.50;81.22
75536;BME280;64119;52.070;20.804;2022-11-20T01:03:55;100309.30;;;-4.45;81.25
75536;BME280;64119;52.070;20.804;2022-11-20T01:08:55;100308.79;;;-4.42;80.01
75536;BME280;64119;52.070;20.804;2022-11-20T01:11:26;100305.84;;;-4.44;79.90
75536;BME280;64119;52.070;20.804;2022-11-20T01:13:55;100306.11;;;-4.49;79.57
75536;BME280;64119;52.070;20.804;2022-11-20T01:18:58;100308.14;;;-4.59;79.67
75536;BME280;64119;52.070;20.804;2022-11-20T01:21:29;100299.03;;;-4.65;80.00
75536;BME280;64119;52.070;20.804;2022-11-20T01:23:58;100303.54;;;-4.68;80.17
75536;BME280;64119;52.070;20.804;2022-11-20T01:26:29;100298.01;;;-4.71;79.88
75536;BME280;64119;52.070;20.804;2022-11-20T01:28:58;100297.95;;;-4.73;79.59
75536;BME280;64119;52.070;20.804;2022-11-20T01:31:29;100297.11;;;-4.79;80.13
75536;BME280;64119;52.070;20.804;2022-11-20T01:34:02;100290.63;;;-4.77;80.25
75536;BME280;64119;52.070;20.804;2022-11-20T01:36:33;100285.36;;;-4.73;80.32
75536;BME280;64119;52.070;20.804;2022-11-20T01:39:09;100287.95;;;-4.70;80.41
75536;BME280;64119;52.070;20.804;2022-11-20T01:41:38;100284.23;;;-4.65;80.31
75536;BME280;64119;52.070;20.804;2022-11-20T01:45:00;100288.70;;;-4.62;80.12
75536;BME280;64119;52.070;20.804;2022-11-20T01:47:33;100292.59;;;-4.64;79.53
75536;BME280;64119;52.070;20.804;2022-11-20T01:50:16;100291.52;;;-4.66;79.62
75536;BME280;64119;52.070;20.804;2022-11-20T01:52:50;100293.17;;;-4.68;79.57
75536;BME280;64119;52.070;20.804;2022-11-20T01:55:22;100298.23;;;-4.72;79.58
75536;BME280;64119;52.070;20.804;2022-11-20T01:57:53;100294.63;;;-4.72;79.44
75536;BME280;64119;52.070;20.804;2022-11-20T02:00:22;100294.38;;;-4.74;79.79
75536;BME280;64119;52.070;20.804;2022-11-20T02:03:05;100294.34;;;-4.73;79.64
75536;BME280;64119;52.070;20.804;2022-11-20T02:05:56;100295.11;;;-4.75;79.78
75536;BME280;64119;52.070;20.804;2022-11-20T02:08:27;100293.69;;;-4.77;79.49
75536;BME280;64119;52.070;20.804;2022-11-20T02:10:55;100296.80;;;-4.74;80.07
75536;BME280;64119;52.070;20.804;2022-11-20T02:13:23;100301.64;;;-4.71;80.36
75536;BME280;64119;52.070;20.804;2022-11-20T02:16:22;100298.38;;;-4.66;80.90
75536;BME280;64119;52.070;20.804;2022-11-20T02:18:52;100298.73;;;-4.63;80.43
75536;BME280;64119;52.070;20.804;2022-11-20T02:21:28;100295.31;;;-4.63;80.38
75536;BME280;64119;52.070;20.804;2022-11-20T02:24:11;100293.00;;;-4.65;79.52
75536;BME280;64119;52.070;20.804;2022-11-20T02:26:48;100293.27;;;-4.66;79.60
75536;BME280;64119;52.070;20.804;2022-11-20T02:29:26;100295.77;;;-4.71;79.62
75536;BME280;64119;52.070;20.804;2022-11-20T02:31:55;100298.02;;;-4.72;79.94
75536;BME280;64119;52.070;20.804;2022-11-20T02:34:23;100297.54;;;-4.72;79.56
75536;BME280;64119;52.070;20.804;2022-11-20T02:36:51;100300.44;;;-4.74;79.60
75536;BME280;64119;52.070;20.804;2022-11-20T02:39:20;100299.37;;;-4.76;79.63
75536;BME280;64119;52.070;20.804;2022-11-20T02:41:53;100296.19;;;-4.81;79.66
75536;BME280;64119;52.070;20.804;2022-11-20T02:44:21;100295.95;;;-4.83;79.54
75536;BME280;64119;52.070;20.804;2022-11-20T02:46:48;100288.17;;;-4.85;79.77
75536;BME280;64119;52.070;20.804;2022-11-20T02:49:16;100291.02;;;-4.83;80.38
75536;BME280;64119;52.070;20.804;2022-11-20T02:51:44;100291.96;;;-4.79;80.71
75536;BME280;64119;52.070;20.804;2022-11-20T02:54:12;100292.81;;;-4.76;80.86
75536;BME280;64119;52.070;20.804;2022-11-20T02:56:40;100291.81;;;-4.77;80.56
75536;BME280;64119;52.070;20.804;2022-11-20T02:59:08;100293.20;;;-4.77;80.58
75536;BME280;64119;52.070;20.804;2022-11-20T03:01:36;100293.29;;;-4.78;80.35
75536;BME280;64119;52.070;20.804;2022-11-20T03:04:04;100287.40;;;-4.83;80.29
75536;BME280;64119;52.070;20.804;2022-11-20T03:06:31;100284.35;;;-4.90;80.46
75536;BME280;64119;52.070;20.804;2022-11-20T03:08:59;100282.02;;;-4.94;80.53
75536;BME280;64119;52.070;20.804;2022-11-20T03:11:27;100282.11;;;-4.98;80.63
75536;BME280;64119;52.070;20.804;2022-11-20T03:13:55;100286.39;;;-5.03;80.48
75536;BME280;64119;52.070;20.804;2022-11-20T03:16:23;100282.05;;;-5.09;81.28
75536;BME280;64119;52.070;20.804;2022-11-20T03:18:52;100278.63;;;-5.12;81.24
75536;BME280;64119;52.070;20.804;2022-11-20T03:21:19;100277.19;;;-5.14;81.72
75536;BME280;64119;52.070;20.804;2022-11-20T03:23:47;100276.56;;;-5.15;81.81
75536;BME280;64119;52.070;20.804;2022-11-20T03:26:16;100272.14;;;-5.16;81.75
75536;BME280;64119;52.070;20.804;2022-11-20T03:28:50;100274.92;;;-5.16;81.33
75536;BME280;64119;52.070;20.804;2022-11-20T03:31:21;100271.36;;;-5.20;81.39
75536;BME280;64119;52.070;20.804;2022-11-20T03:33:49;100266.11;;;-5.27;82.05
75536;BME280;64119;52.070;20.804;2022-11-20T03:36:18;100267.91;;;-5.34;81.41
75536;BME280;64119;52.070;20.804;2022-11-20T03:38:47;100264.05;;;-5.45;81.63
75536;BME280;64119;52.070;20.804;2022-11-20T03:41:18;100263.18;;;-5.51;81.70
75536;BME280;64119;52.070;20.804;2022-11-20T03:43:57;100266.70;;;-5.58;82.08
75536;BME280;64119;52.070;20.804;2022-11-20T03:46:26;100269.73;;;-5.65;82.30
75536;BME280;64119;52.070;20.804;2022-11-20T03:48:54;100270.98;;;-5.66;82.51
75536;BME280;64119;52.070;20.804;2022-11-20T03:51:24;100273.16;;;-5.68;82.88
75536;BME280;64119;52.070;20.804;2022-11-20T03:53:54;100271.98;;;-5.71;83.06
75536;BME280;64119;52.070;20.804;2022-11-20T03:56:25;100272.45;;;-5.71;82.91
75536;BME280;64119;52.070;20.804;2022-11-20T03:58:52;100272.80;;;-5.68;82.94
75536;BME280;64119;52.070;20.804;2022-11-20T04:01:26;100266.27;;;-5.71;83.24
75536;BME280;64119;52.070;20.804;2022-11-20T04:03:55;100264.41;;;-5.68;83.20
75536;BME280;64119;52.070;20.804;2022-11-20T04:06:26;100266.32;;;-5.69;83.32
75536;BME280;64119;52.070;20.804;2022-11-20T04:08:54;100267.35;;;-5.66;83.52
75536;BME280;64119;52.070;20.804;2022-11-20T04:11:28;100272.89;;;-5.66;83.49
75536;BME280;64119;52.070;20.804;2022-11-20T04:14:02;100270.95;;;-5.66;83.55
75536;BME280;64119;52.070;20.804;2022-11-20T04:16:32;100269.84;;;-5.70;83.49
75536;BME280;64119;52.070;20.804;2022-11-20T04:19:03;100269.98;;;-5.72;83.58
75536;BME280;64119;52.070;20.804;2022-11-20T04:21:31;100266.23;;;-5.73;83.70
75536;BME280;64119;52.070;20.804;2022-11-20T04:24:01;100267.66;;;-5.71;83.66
75536;BME280;64119;52.070;20.804;2022-11-20T04:26:29;100267.20;;;-5.75;83.91
75536;BME280;64119;52.070;20.804;2022-11-20T04:28:58;100265.72;;;-5.79;83.86
75536;BME280;64119;52.070;20.804;2022-11-20T04:31:29;100263.92;;;-5.81;83.67
75536;BME280;64119;52.070;20.804;2022-11-20T04:34:03;100264.26;;;-5.80;83.89
75536;BME280;64119;52.070;20.804;2022-11-20T04:36:32;100265.63;;;-5.77;84.09
75536;BME280;64119;52.070;20.804;2022-11-20T04:39:05;100257.90;;;-5.78;83.98
75536;BME280;64119;52.070;20.804;2022-11-20T04:41:35;100255.61;;;-5.74;83.81
75536;BME280;64119;52.070;20.804;2022-11-20T04:44:04;100251.36;;;-5.72;83.66
75536;BME280;64119;52.070;20.804;2022-11-20T04:46:37;100249.41;;;-5.77;83.49
75536;BME280;64119;52.070;20.804;2022-11-20T04:49:07;100251.49;;;-5.77;82.97
75536;BME280;64119;52.070;20.804;2022-11-20T04:51:35;100253.38;;;-5.80;82.98
75536;BME280;64119;52.070;20.804;2022-11-20T04:54:02;100251.11;;;-5.85;83.63
75536;BME280;64119;52.070;20.804;2022-11-20T04:56:31;100253.45;;;-5.87;83.08
75536;BME280;64119;52.070;20.804;2022-11-20T04:59:02;100246.20;;;-5.89;83.03
75536;BME280;64119;52.070;20.804;2022-11-20T05:01:30;100244.71;;;-5.94;83.23
75536;BME280;64119;52.070;20.804;2022-11-20T05:03:58;100243.34;;;-5.96;83.22
75536;BME280;64119;52.070;20.804;2022-11-20T05:06:25;100244.23;;;-5.97;83.18
75536;BME280;64119;52.070;20.804;2022-11-20T05:08:53;100247.89;;;-5.98;83.05
75536;BME280;64119;52.070;20.804;2022-11-20T05:11:21;100248.81;;;-5.99;82.86
75536;BME280;64119;52.070;20.804;2022-11-20T05:13:50;100249.49;;;-5.96;83.18
75536;BME280;64119;52.070;20.804;2022-11-20T05:16:22;100247.80;;;-5.90;83.51
75536;BME280;64119;52.070;20.804;2022-11-20T05:18:52;100247.61;;;-5.87;83.93
75536;BME280;64119;52.070;20.804;2022-11-20T05:21:21;100248.08;;;-5.83;84.12
75536;BME280;64119;52.070;20.804;2022-11-20T05:23:49;100253.41;;;-5.81;84.10
75536;BME280;64119;52.070;20.804;2022-11-20T05:26:19;100252.73;;;-5.80;84.18
75536;BME280;64119;52.070;20.804;2022-11-20T05:28:50;100251.20;;;-5.78;84.34
75536;BME280;64119;52.070;20.804;2022-11-20T05:31:21;100247.97;;;-5.76;84.49
75536;BME280;64119;52.070;20.804;2022-11-20T05:33:56;100238.36;;;-5.76;84.74
75536;BME280;64119;52.070;20.804;2022-11-20T05:36:24;100235.34;;;-5.75;84.56
75536;BME280;64119;52.070;20.804;2022-11-20T05:38:52;100227.58;;;-5.77;84.15
75536;BME280;64119;52.070;20.804;2022-11-20T05:41:26;100225.83;;;-5.77;83.80
75536;BME280;64119;52.070;20.804;2022-11-20T05:43:55;100226.80;;;-5.79;83.70
75536;BME280;64119;52.070;20.804;2022-11-20T05:46:23;100226.77;;;-5.81;83.35
75536;BME280;64119;52.070;20.804;2022-11-20T05:48:56;100225.64;;;-5.85;83.49
75536;BME280;64119;52.070;20.804;2022-11-20T05:51:25;100225.81;;;-5.88;83.57
75536;BME280;64119;52.070;20.804;2022-11-20T05:53:53;100222.88;;;-5.91;83.35
75536;BME280;64119;52.070;20.804;2022-11-20T05:56:23;100221.21;;;-5.95;83.32
75536;BME280;64119;52.070;20.804;2022-11-20T05:58:50;100226.80;;;-5.99;83.72
75536;BME280;64119;52.070;20.804;2022-11-20T06:01:21;100225.67;;;-6.00;83.76
75536;BME280;64119;52.070;20.804;2022-11-20T06:03:49;100220.46;;;-6.00;84.44
75536;BME280;64119;52.070;20.804;2022-11-20T06:06:19;100218.23;;;-6.00;84.60
75536;BME280;64119;52.070;20.804;2022-11-20T06:08:48;100216.08;;;-5.98;85.01
75536;BME280;64119;52.070;20.804;2022-11-20T06:11:16;100212.89;;;-5.94;84.97
75536;BME280;64119;52.070;20.804;2022-11-20T06:13:45;100218.69;;;-5.87;85.04
75536;BME280;64119;52.070;20.804;2022-11-20T06:16:15;100219.46;;;-5.86;85.04
75536;BME280;64119;52.070;20.804;2022-11-20T06:18:43;100219.48;;;-5.81;85.15
75536;BME280;64119;52.070;20.804;2022-11-20T06:21:11;100215.20;;;-5.72;84.78
75536;BME280;64119;52.070;20.804;2022-11-20T06:23:40;100214.70;;;-5.73;84.60
75536;BME280;64119;52.070;20.804;2022-11-20T06:26:20;100214.02;;;-5.76;84.51
75536;BME280;64119;52.070;20.804;2022-11-20T06:28:48;100213.63;;;-5.75;84.07
75536;BME280;64119;52.070;20.804;2022-11-20T06:31:19;100213.07;;;-5.77;83.89
75536;BME280;64119;52.070;20.804;2022-11-20T06:33:47;100205.70;;;-5.77;83.27
75536;BME280;64119;52.070;20.804;2022-11-20T06:36:18;100207.30;;;-5.84;83.40
75536;BME280;64119;52.070;20.804;2022-11-20T06:38:47;100208.06;;;-5.88;83.49
75536;BME280;64119;52.070;20.804;2022-11-20T06:41:17;100207.40;;;-5.91;83.69
75536;BME280;64119;52.070;20.804;2022-11-20T06:43:46;100206.70;;;-5.97;83.76
75536;BME280;64119;52.070;20.804;2022-11-20T06:46:15;100207.67;;;-5.99;84.20
75536;BME280;64119;52.070;20.804;2022-11-20T06:48:48;100212.33;;;-5.99;83.99
75536;BME280;64119;52.070;20.804;2022-11-20T06:51:16;100211.20;;;-6.00;84.36
75536;BME280;64119;52.070;20.804;2022-11-20T06:53:44;100211.58;;;-5.95;84.48
75536;BME280;64119;52.070;20.804;2022-11-20T06:56:12;100210.13;;;-5.88;84.55
75536;BME280;64119;52.070;20.804;2022-11-20T06:58:39;100212.05;;;-5.80;84.72
75536;BME280;64119;52.070;20.804;2022-11-20T07:01:10;100210.25;;;-5.73;84.73
75536;BME280;64119;52.070;20.804;2022-11-20T07:03:38;100209.55;;;-5.67;84.77
75536;BME280;64119;52.070;20.804;2022-11-20T07:06:07;100208.39;;;-5.65;84.39
75536;BME280;64119;52.070;20.804;2022-11-20T07:08:35;100205.33;;;-5.60;84.75
75536;BME280;64119;52.070;20.804;2022-11-20T07:11:06;100201.24;;;-5.55;84.72
75536;BME280;64119;52.070;20.804;2022-11-20T07:13:34;100198.98;;;-5.49;84.33
75536;BME280;64119;52.070;20.804;2022-11-20T07:16:03;100194.23;;;-5.45;84.31
75536;BME280;64119;52.070;20.804;2022-11-20T07:18:32;100191.30;;;-5.45;83.89
75536;BME280;64119;52.070;20.804;2022-11-20T07:21:05;100194.42;;;-5.48;84.10
75536;BME280;64119;52.070;20.804;2022-11-20T07:23:33;100194.94;;;-5.48;83.77
75536;BME280;64119;52.070;20.804;2022-11-20T07:26:06;100198.34;;;-5.47;83.88
75536;BME280;64119;52.070;20.804;2022-11-20T07:28:34;100202.69;;;-5.47;83.70
75536;BME280;64119;52.070;20.804;2022-11-20T07:31:03;100201.48;;;-5.47;83.66
75536;BME280;64119;52.070;20.804;2022-11-20T07:33:32;100204.66;;;-5.43;83.87
75536;BME280;64119;52.070;20.804;2022-11-20T07:36:00;100200.64;;;-5.36;83.53
75536;BME280;64119;52.070;20.804;2022-11-20T07:38:28;100200.94;;;-5.32;83.42
75536;BME280;64119;52.070;20.804;2022-11-20T07:40:56;100199.63;;;-5.25;83.26
75536;BME280;64119;52.070;20.804;2022-11-20T07:43:25;100197.98;;;-5.18;83.43
75536;BME280;64119;52.070;20.804;2022-11-20T07:45:56;100193.71;;;-5.05;83.67
75536;BME280;64119;52.070;20.804;2022-11-20T07:48:25;100193.36;;;-4.75;83.26
75536;BME280;64119;52.070;20.804;2022-11-20T07:50:54;100190.67;;;-4.38;82.64
75536;BME280;64119;52.070;20.804;2022-11-20T07:53:22;100181.89;;;-4.02;81.87
75536;BME280;64119;52.070;20.804;2022-11-20T07:55:50;100184.94;;;-3.62;82.22
75536;BME280;64119;52.070;20.804;2022-11-20T07:58:22;100182.46;;;-3.26;80.20
75536;BME280;64119;52.070;20.804;2022-11-20T08:00:50;100179.88;;;-2.95;81.25
75536;BME280;64119;52.070;20.804;2022-11-20T08:03:18;100178.25;;;-2.52;81.11
75536;BME280;64119;52.070;20.804;2022-11-20T08:05:51;100175.64;;;-2.12;79.75
75536;BME280;64119;52.070;20.804;2022-11-20T08:08:20;100176.31;;;-1.82;78.99
75536;BME280;64119;52.070;20.804;2022-11-20T08:10:49;100174.15;;;-1.52;76.95
75536;BME280;64119;52.070;20.804;2022-11-20T08:13:16;100169.22;;;-1.24;77.46
75536;BME280;64119;52.070;20.804;2022-11-20T08:16:03;100172.05;;;-0.91;76.83
75536;BME280;64119;52.070;20.804;2022-11-20T08:18:31;100166.13;;;-0.78;73.26
75536;BME280;64119;52.070;20.804;2022-11-20T08:21:03;100164.63;;;-0.60;73.90
75536;BME280;64119;52.070;20.804;2022-11-20T08:23:32;100160.30;;;-0.20;73.72
75536;BME280;64119;52.070;20.804;2022-11-20T08:26:00;100158.74;;;0.04;73.19
75536;BME280;64119;52.070;20.804;2022-11-20T08:28:28;100162.30;;;0.26;73.03
75536;BME280;64119;52.070;20.804;2022-11-20T08:31:02;100159.18;;;0.32;72.23
75536;BME280;64119;52.070;20.804;2022-11-20T08:33:30;100157.45;;;0.29;70.61
75536;BME280;64119;52.070;20.804;2022-11-20T08:36:04;100156.09;;;0.43;71.06
75536;BME280;64119;52.070;20.804;2022-11-20T08:38:32;100157.44;;;0.50;70.53
75536;BME280;64119;52.070;20.804;2022-11-20T08:41:02;100158.29;;;0.62;70.49
75536;BME280;64119;52.070;20.804;2022-11-20T08:43:59;100154.24;;;0.81;69.77
75536;BME280;64119;52.070;20.804;2022-11-20T08:46:38;100150.61;;;0.91;67.54
75536;BME280;64119;52.070;20.804;2022-11-20T08:49:11;100139.80;;;1.12;68.66
75536;BME280;64119;52.070;20.804;2022-11-20T08:51:40;100132.69;;;1.34;68.93
75536;BME280;64119;52.070;20.804;2022-11-20T08:54:08;100129.27;;;1.56;67.60
75536;BME280;64119;52.070;20.804;2022-11-20T08:56:36;100126.47;;;1.53;66.43
75536;BME280;64119;52.070;20.804;2022-11-20T08:59:04;100128.91;;;1.45;65.31
75536;BME280;64119;52.070;20.804;2022-11-20T09:01:52;100128.20;;;1.57;66.60
75536;BME280;64119;52.070;20.804;2022-11-20T09:04:20;100129.40;;;1.67;66.32
75536;BME280;64119;52.070;20.804;2022-11-20T09:06:48;100127.23;;;1.77;66.04
75536;BME280;64119;52.070;20.804;2022-11-20T09:09:19;100125.79;;;1.78;65.30
75536;BME280;64119;52.070;20.804;2022-11-20T09:11:48;100125.27;;;1.74;65.13
75536;BME280;64119;52.070;20.804;2022-11-20T09:14:17;100118.60;;;1.51;64.89
75536;BME280;64119;52.070;20.804;2022-11-20T09:16:45;100114.54;;;1.16;65.31
75536;BME280;64119;52.070;20.804;2022-11-20T09:19:14;100113.89;;;0.81;65.50
75536;BME280;64119;52.070;20.804;2022-11-20T09:22:02;100116.51;;;0.48;67.07
75536;BME280;64119;52.070;20.804;2022-11-20T09:24:30;100118.58;;;0.32;68.26
75536;BME280;64119;52.070;20.804;2022-11-20T09:27:04;100115.52;;;-0.07;68.45
75536;BME280;64119;52.070;20.804;2022-11-20T09:29:33;100110.33;;;-0.20;68.93
75536;BME280;64119;52.070;20.804;2022-11-20T09:32:01;100116.80;;;-0.33;68.96
75536;BME280;64119;52.070;20.804;2022-11-20T09:34:29;100116.95;;;-0.61;69.38
75536;BME280;64119;52.070;20.804;2022-11-20T09:36:57;100121.02;;;-0.85;70.17
75536;BME280;64119;52.070;20.804;2022-11-20T09:39:31;100115.66;;;-0.98;70.87
75536;BME280;64119;52.070;20.804;2022-11-20T09:47:31;100118.08;;;-1.15;71.40
75536;BME280;64119;52.070;20.804;2022-11-20T09:53:11;100116.63;;;-0.72;71.34
75536;BME280;64119;52.070;20.804;2022-11-20T09:55:42;100111.12;;;-0.28;70.41
75536;BME280;64119;52.070;20.804;2022-11-20T09:58:21;100106.15;;;0.07;69.91
75536;BME280;64119;52.070;20.804;2022-11-20T10:00:53;100102.00;;;0.47;69.23
75536;BME280;64119;52.070;20.804;2022-11-20T10:03:37;100099.29;;;0.79;68.82
75536;BME280;64119;52.070;20.804;2022-11-20T10:06:12;100091.73;;;1.09;67.56
75536;BME280;64119;52.070;20.804;2022-11-20T10:08:55;100093.39;;;1.19;67.12
75536;BME280;64119;52.070;20.804;2022-11-20T10:11:35;100095.34;;;1.19;67.17
75536;BME280;64119;52.070;20.804;2022-11-20T10:14:38;100094.68;;;1.13;67.29
75536;BME280;64119;52.070;20.804;2022-11-20T10:23:31;100090.30;;;0.74;68.33
75536;BME280;64119;52.070;20.804;2022-11-20T10:26:43;100082.10;;;0.86;68.46
75536;BME280;64119;52.070;20.804;2022-11-20T10:29:15;100081.05;;;1.02;68.68
75536;BME280;64119;52.070;20.804;2022-11-20T10:31:46;100085.04;;;1.33;67.75
75536;BME280;64119;52.070;20.804;2022-11-20T10:37:05;100076.77;;;1.76;67.20
75536;BME280;64119;52.070;20.804;2022-11-20T10:39:47;100072.87;;;1.88;67.55
75536;BME280;64119;52.070;20.804;2022-11-20T10:42:30;100075.48;;;1.99;67.49
75536;BME280;64119;52.070;20.804;2022-11-20T10:45:11;100073.92;;;2.10;66.42
75536;BME280;64119;52.070;20.804;2022-11-20T10:47:43;100067.89;;;2.32;66.33
75536;BME280;64119;52.070;20.804;2022-11-20T10:50:14;100062.27;;;2.49;66.20
75536;BME280;64119;52.070;20.804;2022-11-20T10:53:16;100060.13;;;2.60;65.70
75536;BME280;64119;52.070;20.804;2022-11-20T10:55:54;100061.95;;;2.50;65.68
75536;BME280;64119;52.070;20.804;2022-11-20T10:58:42;100059.12;;;2.31;65.83
75536;BME280;64119;52.070;20.804;2022-11-20T11:01:20;100059.74;;;2.15;66.75
75536;BME280;64119;52.070;20.804;2022-11-20T11:03:51;100057.27;;;2.06;66.73
75536;BME280;64119;52.070;20.804;2022-11-20T11:06:29;100060.31;;;1.97;66.93
75536;BME280;64119;52.070;20.804;2022-11-20T11:09:04;100064.06;;;1.85;67.38
75536;BME280;64119;52.070;20.804;2022-11-20T11:11:38;100060.83;;;1.80;67.30
75536;BME280;64119;52.070;20.804;2022-11-20T11:14:13;100056.80;;;1.81;67.16
75536;BME280;64119;52.070;20.804;2022-11-20T11:16:52;100055.80;;;1.69;67.41
75536;BME280;64119;52.070;20.804;2022-11-20T11:19:20;100053.94;;;1.55;67.21
75536;BME280;64119;52.070;20.804;2022-11-20T11:21:56;100055.10;;;1.50;67.54
75536;BME280;64119;52.070;20.804;2022-11-20T11:24:29;100051.60;;;1.48;67.58
75536;BME280;64119;52.070;20.804;2022-11-20T11:27:14;100052.04;;;1.59;67.19
75536;BME280;64119;52.070;20.804;2022-11-20T11:29:46;100046.89;;;1.56;67.21
75536;BME280;64119;52.070;20.804;2022-11-20T11:34:41;100052.73;;;1.45;67.63
75536;BME280;64119;52.070;20.804;2022-11-20T11:37:18;100053.94;;;1.40;67.87
75536;BME280;64119;52.070;20.804;2022-11-20T11:39:47;100047.12;;;1.30;67.78
75536;BME280;64119;52.070;20.804;2022-11-20T11:42:27;100044.09;;;1.22;67.88
75536;BME280;64119;52.070;20.804;2022-11-20T11:44:58;100034.49;;;1.14;67.82
75536;BME280;64119;52.070;20.804;2022-11-20T11:47:35;100035.24;;;1.02;67.68
75536;BME280;64119;52.070;20.804;2022-11-20T12:00:41;100018.79;;;0.72;68.52
75536;BME280;64119;52.070;20.804;2022-11-20T12:03:19;100015.98;;;0.70;68.62
75536;BME280;64119;52.070;20.804;2022-11-20T12:05:53;100018.95;;;0.70;68.50
75536;BME280;64119;52.070;20.804;2022-11-20T12:08:29;100016.25;;;0.71;68.69
75536;BME280;64119;52.070;20.804;2022-11-20T12:11:17;100015.02;;;0.69;68.72
75536;BME280;64119;52.070;20.804;2022-11-20T12:16:38;100018.90;;;0.62;69.13
75536;BME280;64119;52.070;20.804;2022-11-20T12:19:11;100014.60;;;0.62;69.11
75536;BME280;64119;52.070;20.804;2022-11-20T12:27:23;100002.77;;;0.64;70.13
75536;BME280;64119;52.070;20.804;2022-11-20T12:50:16;99983.38;;;0.61;70.08
75536;BME280;64119;52.070;20.804;2022-11-20T12:52:56;99978.57;;;0.60;70.01
75536;BME280;64119;52.070;20.804;2022-11-20T12:55:48;99974.96;;;0.63;70.00
75536;BME280;64119;52.070;20.804;2022-11-20T12:58:24;99970.95;;;0.62;70.11
75536;BME280;64119;52.070;20.804;2022-11-20T13:01:00;99963.69;;;0.61;70.09
75536;BME280;64119;52.070;20.804;2022-11-20T13:03:43;99961.51;;;0.62;70.04
75536;BME280;64119;52.070;20.804;2022-11-20T13:06:17;99957.41;;;0.63;70.03
75536;BME280;64119;52.070;20.804;2022-11-20T13:08:56;99953.95;;;0.63;70.15
75536;BME280;64119;52.070;20.804;2022-11-20T13:16:52;99957.15;;;0.56;70.87
75536;BME280;64119;52.070;20.804;2022-11-20T13:19:22;99949.21;;;0.54;70.95
75536;BME280;64119;52.070;20.804;2022-11-20T13:21:50;99945.06;;;0.55;71.47
75536;BME280;64119;52.070;20.804;2022-11-20T13:26:46;99939.52;;;0.59;71.97
75536;BME280;64119;52.070;20.804;2022-11-20T13:29:18;99941.27;;;0.57;71.37
75536;BME280;64119;52.070;20.804;2022-11-20T13:31:47;99944.42;;;0.53;71.37
75536;BME280;64119;52.070;20.804;2022-11-20T13:34:24;99943.47;;;0.52;71.09
75536;BME280;64119;52.070;20.804;2022-11-20T13:36:56;99941.27;;;0.49;71.29
75536;BME280;64119;52.070;20.804;2022-11-20T13:39:31;99937.65;;;0.45;71.19
75536;BME280;64119;52.070;20.804;2022-11-20T13:44:53;99939.28;;;0.34;71.34
75536;BME280;64119;52.070;20.804;2022-11-20T13:47:28;99941.11;;;0.31;71.34
75536;BME280;64119;52.070;20.804;2022-11-20T13:49:58;99934.26;;;0.24;71.61
75536;BME280;64119;52.070;20.804;2022-11-20T13:53:01;99928.42;;;0.22;71.70
75536;BME280;64119;52.070;20.804;2022-11-20T13:55:54;99920.54;;;0.16;71.82
75536;BME280;64119;52.070;20.804;2022-11-20T14:01:24;99918.02;;;0.09;72.01
75536;BME280;64119;52.070;20.804;2022-11-20T14:03:54;99915.66;;;0.09;71.80
75536;BME280;64119;52.070;20.804;2022-11-20T14:06:45;99912.83;;;0.03;71.94
75536;BME280;64119;52.070;20.804;2022-11-20T14:09:27;99908.82;;;-0.03;72.20
75536;BME280;64119;52.070;20.804;2022-11-20T14:11:55;99905.52;;;-0.07;72.35
75536;BME280;64119;52.070;20.804;2022-11-20T14:14:29;99908.85;;;-0.12;72.33
75536;BME280;64119;52.070;20.804;2022-11-20T14:17:08;99909.98;;;-0.14;72.47
75536;BME280;64119;52.070;20.804;2022-11-20T14:19:38;99909.61;;;-0.16;72.61
75536;BME280;64119;52.070;20.804;2022-11-20T14:24:34;99909.48;;;-0.17;73.71
75536;BME280;64119;52.070;20.804;2022-11-20T14:27:02;99909.75;;;-0.12;74.49
75536;BME280;64119;52.070;20.804;2022-11-20T14:29:35;99904.79;;;-0.09;74.12